createdAt,value
2023-02-02T00:02:09.958Z,100161.5
2023-02-02T00:07:48.062Z,100162.4
2023-02-02T00:13:37.121Z,100161.4
2023-02-02T00:19:34.223Z,100157.9
2023-02-02T00:25:12.032Z,100158.4
2023-02-02T00:30:49.741Z,100156.2
2023-02-02T00:36:25.164Z,100149.3
2023-02-02T00:41:59.899Z,100147.6
2023-02-02T00:47:34.810Z,100152
2023-02-02T00:53:11.280Z,100151.4
2023-02-02T00:58:47.342Z,100152.3
2023-02-02T01:04:23.061Z,100150.6
2023-02-02T01:09:58.276Z,100158.4
2023-02-02T01:15:33.608Z,100166.9
2023-02-02T01:21:09.248Z,100168.8
2023-02-02T01:26:45.117Z,100170.4
2023-02-02T01:32:21.268Z,100164.8
2023-02-02T01:37:57.199Z,100165.8
2023-02-02T01:43:33.609Z,100167.1
2023-02-02T01:49:08.537Z,100170.5
2023-02-02T01:54:43.572Z,100175.6
2023-02-02T02:00:18.762Z,100173.3
2023-02-02T02:05:55.200Z,100171.2
2023-02-02T02:11:30.504Z,100170.9
2023-02-02T02:17:05.726Z,100170.6
2023-02-02T02:22:41.207Z,100161.5
2023-02-02T02:28:16.282Z,100155.5
2023-02-02T02:33:51.704Z,100146.9
2023-02-02T02:39:26.844Z,100138.3
2023-02-02T02:45:02.988Z,100136.8
2023-02-02T02:50:37.938Z,100128.4
2023-02-02T02:56:13.588Z,100125.3
2023-02-02T03:01:48.990Z,100123.2
2023-02-02T03:07:30.176Z,100112.4
2023-02-02T03:13:05.563Z,100109.2
2023-02-02T03:18:46.870Z,100109.2
2023-02-02T03:24:22.110Z,100102.4
2023-02-02T03:29:58.194Z,100102
2023-02-02T03:35:33.668Z,100092.5
2023-02-02T03:41:09.319Z,100095.9
2023-02-02T03:46:44.680Z,100089.2
2023-02-02T03:52:20.340Z,100083.7
2023-02-02T03:57:55.836Z,100077.8
2023-02-02T04:03:31.312Z,100066.3
2023-02-02T04:09:06.482Z,100057.5
2023-02-02T04:14:41.626Z,100058.1
2023-02-02T04:20:16.773Z,100059.1
2023-02-02T04:25:51.856Z,100056
2023-02-02T04:31:30.263Z,100054.9
2023-02-02T04:37:07.191Z,100065
2023-02-02T04:42:42.384Z,100067
2023-02-02T04:48:18.472Z,100064.5
2023-02-02T04:53:53.603Z,100061.5
2023-02-02T04:59:29.277Z,100067.6
2023-02-02T05:05:04.711Z,100064
2023-02-02T05:10:41.519Z,100070.4
2023-02-02T05:16:17.083Z,100074.4
2023-02-02T05:21:53.096Z,100084.4
2023-02-02T05:27:28.154Z,100089.9
2023-02-02T05:33:04.033Z,100090.2
2023-02-02T05:38:39.433Z,100098.1
2023-02-02T05:44:14.447Z,100103.1
2023-02-02T05:49:49.710Z,100107.6
2023-02-02T05:55:26.965Z,100125
2023-02-02T06:01:02.772Z,100131.2
2023-02-02T06:06:38.287Z,100129.5
2023-02-02T06:12:13.687Z,100126.4
2023-02-02T06:17:51.676Z,100131
2023-02-02T06:23:27.131Z,100134.4
2023-02-02T06:29:02.231Z,100138
2023-02-02T06:34:37.597Z,100143.5
2023-02-02T06:40:12.569Z,100141.3
2023-02-02T06:45:47.670Z,100142.4
2023-02-02T06:51:23.740Z,100147.5
2023-02-02T06:57:00.971Z,100148
2023-02-02T07:02:37.166Z,100147.6
2023-02-02T07:08:14.208Z,100155.7
2023-02-02T07:13:50.661Z,100156.8
2023-02-02T07:19:27.418Z,100161.6
2023-02-02T07:25:03.429Z,100156.4
2023-02-02T07:30:47.914Z,100155.9
2023-02-02T07:36:36.272Z,100165.5
2023-02-02T07:42:12.824Z,100171.2
2023-02-02T07:47:57.310Z,100184
2023-02-02T07:53:49.179Z,100184.6
2023-02-02T07:59:32.277Z,100186
2023-02-02T08:05:07.692Z,100188.8
2023-02-02T08:11:03.423Z,100191.1
2023-02-02T08:16:39.827Z,100197.6
2023-02-02T08:22:21.021Z,100198
2023-02-02T08:28:13.793Z,100201.2
2023-02-02T08:33:58.126Z,100197.9
2023-02-02T08:39:36.423Z,100198.2
2023-02-02T08:46:06.549Z,100204.5
2023-02-02T08:51:43.239Z,100212.2
2023-02-02T08:57:18.790Z,100216.7
2023-02-02T09:03:00.340Z,100222.1
2023-02-02T09:08:36.193Z,100233.3
2023-02-02T09:14:16.249Z,100239.5
2023-02-02T09:19:52.879Z,100250.2
2023-02-02T09:25:50.969Z,100250.9
2023-02-02T09:31:30.894Z,100258.7
2023-02-02T09:37:08.061Z,100272.2
2023-02-02T09:42:44.717Z,100283.2
2023-02-02T09:48:19.923Z,100286.9
2023-02-02T09:53:56.937Z,100293.8
2023-02-02T09:59:33.199Z,100293.6
2023-02-02T10:05:11.361Z,100304.5
2023-02-02T10:11:08.555Z,100307.1
2023-02-02T10:16:43.513Z,100313.8
2023-02-02T10:22:23.125Z,100316.3
2023-02-02T10:27:58.389Z,100312
2023-02-02T10:33:33.546Z,100311.8
2023-02-02T10:39:09.963Z,100304.2
2023-02-02T10:44:45.502Z,100297.9
2023-02-02T10:50:21.224Z,100298.7
2023-02-02T10:55:57.924Z,100293.2
2023-02-02T11:01:35.469Z,100298.2
2023-02-02T11:07:12.406Z,100289.9
2023-02-02T11:13:06.443Z,100281.1
2023-02-02T11:18:44.633Z,100276.4
2023-02-02T11:24:20.317Z,100259.4
2023-02-02T11:29:58.073Z,100266.4
2023-02-02T11:35:37.027Z,100244.9
2023-02-02T11:41:12.240Z,100242.3
2023-02-02T11:46:47.852Z,100233.9
2023-02-02T11:52:34.520Z,100229.6
2023-02-02T11:58:12.570Z,100216.6
2023-02-02T12:03:48.493Z,100205.5
2023-02-02T12:09:34.027Z,100201.3
2023-02-02T12:15:09.118Z,100198.5
2023-02-02T12:20:44.508Z,100195.5
2023-02-02T12:26:20.996Z,100184.1
2023-02-02T12:31:57.425Z,100178
2023-02-02T12:37:33.730Z,100178.5
2023-02-02T12:43:08.925Z,100174.9
2023-02-02T12:48:47.444Z,100159.7
2023-02-02T12:54:51.853Z,100158.3
2023-02-02T13:00:52.105Z,100148.9
2023-02-02T13:06:32.980Z,100144.2
2023-02-02T13:12:09.556Z,100136.6
2023-02-02T13:17:47.536Z,100127.7
2023-02-02T13:23:22.478Z,100123.8
2023-02-02T13:28:58.418Z,100115.8
2023-02-02T13:34:34.479Z,100115.2
2023-02-02T13:40:09.566Z,100113.4
2023-02-02T13:45:46.123Z,100113
2023-02-02T13:51:23.112Z,100115
2023-02-02T13:56:59.354Z,100108
2023-02-02T14:02:35.403Z,100102.2
2023-02-02T14:08:11.087Z,100099.2
2023-02-02T14:13:53.751Z,100107.6
2023-02-02T14:19:36.881Z,100107.9
2023-02-02T14:25:22.036Z,100111.2
2023-02-02T14:30:57.762Z,100113.4
2023-02-02T14:36:38.008Z,100115.4
2023-02-02T14:42:13.714Z,100123.7
2023-02-02T14:47:49.037Z,100128.6
2023-02-02T14:53:24.447Z,100125.9
2023-02-02T14:59:03.180Z,100134.3
2023-02-02T15:04:39.148Z,100136.4
2023-02-02T15:10:21.932Z,100140.9
2023-02-02T15:16:07.398Z,100140.9
2023-02-02T15:21:44.050Z,100146.5
2023-02-02T15:27:19.772Z,100138.9
2023-02-02T15:32:55.278Z,100145.6
2023-02-02T15:38:33.658Z,100140.8
2023-02-02T15:44:08.559Z,100140.2
2023-02-02T15:49:51.236Z,100140
2023-02-02T15:55:35.874Z,100145.9
2023-02-02T16:01:30.061Z,100146.9
2023-02-02T16:07:04.644Z,100154.5
2023-02-02T16:12:47.548Z,100151.3
2023-02-02T16:18:23.727Z,100154.3
2023-02-02T16:23:58.695Z,100155
2023-02-02T16:29:34.539Z,100158
2023-02-02T16:35:27.745Z,100162.2
2023-02-02T16:41:06.580Z,100172.3
2023-02-02T16:46:41.186Z,100174.1
2023-02-02T16:52:17.532Z,100177.5
2023-02-02T16:57:52.682Z,100187
2023-02-02T17:03:27.661Z,100193
2023-02-02T17:09:13.633Z,100204.4
2023-02-02T17:15:12.107Z,100217.6
2023-02-02T17:21:24.682Z,100228.3
2023-02-02T17:27:15.563Z,100230.2
2023-02-02T17:32:53.202Z,100236.8
2023-02-02T17:38:28.298Z,100244.9
2023-02-02T17:44:06.285Z,100248.6
2023-02-02T17:49:42.706Z,100256.8
2023-02-02T17:55:23.678Z,100258.4
2023-02-02T18:01:01.139Z,100265.3
2023-02-02T18:06:36.553Z,100272.5
2023-02-02T18:12:11.746Z,100273.4
2023-02-02T18:17:46.720Z,100283.3
2023-02-02T18:23:21.779Z,100288.8
2023-02-02T18:28:57.274Z,100284
2023-02-02T18:34:59.831Z,100292.7
2023-02-02T18:40:42.541Z,100296.6
2023-02-02T18:46:18.094Z,100296.1
2023-02-02T18:51:54.785Z,100289.6
2023-02-02T18:57:30.817Z,100294.2
2023-02-02T19:03:05.806Z,100293.7
2023-02-02T19:09:05.343Z,100297.3
2023-02-02T19:14:44.350Z,100291.6
2023-02-02T19:20:19.264Z,100294.6
2023-02-02T19:25:53.911Z,100295.2
2023-02-02T19:31:30.119Z,100302.9
2023-02-02T19:37:10.110Z,100300.8
2023-02-02T19:42:45.307Z,100298.1
2023-02-02T19:48:26.785Z,100295.7
2023-02-02T19:54:10.997Z,100297.4
2023-02-02T19:59:54.732Z,100303
2023-02-02T20:05:29.993Z,100298.6
2023-02-02T20:11:08.839Z,100292.3
2023-02-02T20:16:44.251Z,100294.8
2023-02-02T20:22:20.997Z,100291
2023-02-02T20:27:57.361Z,100291.7
2023-02-02T20:33:41.173Z,100290.6
2023-02-02T20:39:16.628Z,100287.8
2023-02-02T20:44:51.853Z,100291.9
2023-02-02T20:50:28.482Z,100296.1
2023-02-02T20:56:05.093Z,100294.6
2023-02-02T21:01:42.229Z,100291.4
2023-02-02T21:07:35.968Z,100297
2023-02-02T21:13:11.107Z,100298.6
2023-02-02T21:18:55.312Z,100294.1
2023-02-02T21:24:59.339Z,100294.8
2023-02-02T21:30:36.055Z,100295.1
2023-02-02T21:36:12.654Z,100301.5
2023-02-02T21:41:51.786Z,100304.2
2023-02-02T21:47:41.705Z,100304.8
2023-02-02T21:53:21.339Z,100310.9
2023-02-02T21:58:56.408Z,100312.4
2023-02-02T22:04:31.406Z,100312.1
2023-02-02T22:10:07.071Z,100312.5
2023-02-02T22:15:46.114Z,100312
2023-02-02T22:21:32.028Z,100316.7
2023-02-02T22:27:06.780Z,100316
2023-02-02T22:32:57.923Z,100315.3
2023-02-02T22:38:35.976Z,100313.6
2023-02-02T22:44:10.867Z,100314.9
2023-02-02T22:49:45.997Z,100307.5
2023-02-02T22:55:21.133Z,100304.9
2023-02-02T23:00:57.159Z,100306
2023-02-02T23:06:33.230Z,100306.8
2023-02-02T23:12:16.576Z,100314.9
2023-02-02T23:17:56.082Z,100312.3
2023-02-02T23:23:31.900Z,100304.3
2023-02-02T23:29:08.291Z,100309.5
2023-02-02T23:34:43.347Z,100306.9
2023-02-02T23:40:18.702Z,100308.9
2023-02-02T23:45:53.809Z,100303.9
2023-02-02T23:51:28.789Z,100296
2023-02-02T23:57:10.938Z,100296.2
